Time;durP1;ratioP1;P1;durP2;ratioP2;P2;SDS_P1;SDS_P2;PMS_P1;PMS_P2;Temp;Humidity;BMP_temperature;BMP_pressure;BME280_temperature;BME280_humidity;BME280_pressure;Samples;Min_cycle;Max_cycle;Signal;HPM_P1;HPM_P2
2023/05/16 00:01:40;;;;;;;14.97;10.00;;;8.50;69.30;;;;;;5078889;28;46226;-65
2023/05/16 00:04:06;;;;;;;15.57;9.97;;;8.50;69.60;;;;;;5079414;28;46483;-67
2023/05/16 00:06:32;;;;;;;14.80;9.83;;;8.50;69.90;;;;;;5079181;27;45984;-66
2023/05/16 00:08:58;;;;;;;15.47;9.67;;;8.50;70.00;;;;;;5080677;28;46227;-66
2023/05/16 00:11:23;;;;;;;15.67;9.17;;;8.50;70.10;;;;;;5082231;28;46277;-65
2023/05/16 00:13:50;;;;;;;15.10;10.17;;;8.50;70.20;;;;;;5080468;28;45859;-66
2023/05/16 00:16:16;;;;;;;14.67;9.97;;;8.40;70.00;;;;;;5082305;28;46842;-65
2023/05/16 00:18:44;;;;;;;14.40;9.07;;;8.40;70.20;;;;;;5083501;28;46459;-67
2023/05/16 00:21:10;;;;;;;13.63;9.63;;;8.40;70.30;;;;;;5081205;28;45867;-66
2023/05/16 00:23:36;;;;;;;13.93;9.30;;;8.40;70.30;;;;;;5078153;28;46402;-65
2023/05/16 00:26:02;;;;;;;16.20;9.70;;;8.40;70.30;;;;;;5079809;28;49174;-66
2023/05/16 00:28:28;;;;;;;12.67;9.37;;;8.50;70.20;;;;;;5083283;28;46486;-65
2023/05/16 00:30:53;;;;;;;16.90;9.40;;;8.50;70.20;;;;;;5083207;28;45746;-66
2023/05/16 00:33:19;;;;;;;14.10;9.63;;;8.50;70.10;;;;;;5080462;28;46629;-66
2023/05/16 00:35:44;;;;;;;12.67;8.73;;;8.50;70.20;;;;;;5080405;28;46419;-66
2023/05/16 00:38:10;;;;;;;12.77;8.50;;;8.50;70.00;;;;;;5080536;28;46743;-66
2023/05/16 00:40:36;;;;;;;14.67;8.90;;;8.50;70.00;;;;;;5080042;28;45953;-66
2023/05/16 00:43:01;;;;;;;17.50;10.37;;;8.50;69.90;;;;;;5082531;28;46562;-66
2023/05/16 00:45:27;;;;;;;11.23;7.73;;;8.60;69.80;;;;;;5079859;28;46438;-67
2023/05/16 00:47:53;;;;;;;12.50;8.20;;;8.50;69.80;;;;;;5081445;28;45792;-66
2023/05/16 00:50:19;;;;;;;16.63;7.80;;;8.50;69.80;;;;;;5078987;28;46400;-66
2023/05/16 00:52:45;;;;;;;13.73;9.30;;;8.50;69.80;;;;;;5081933;28;46265;-66
2023/05/16 00:55:11;;;;;;;13.50;8.77;;;8.50;69.80;;;;;;5081069;28;46392;-66
2023/05/16 00:57:37;;;;;;;13.33;9.10;;;8.50;69.80;;;;;;5080854;28;45850;-65
2023/05/16 01:00:14;;;;;;;11.70;7.93;;;8.40;69.80;;;;;;5079685;28;45772;-66
2023/05/16 01:02:40;;;;;;;12.10;8.43;;;8.40;70.00;;;;;;5079162;27;46439;-66
2023/05/16 01:05:07;;;;;;;10.63;7.53;;;8.40;69.90;;;;;;5077736;28;46645;-66
2023/05/16 01:07:33;;;;;;;12.73;7.07;;;8.40;69.90;;;;;;5081223;28;46402;-65
2023/05/16 01:10:00;;;;;;;14.50;8.57;;;8.50;69.90;;;;;;5078937;28;46549;-66
2023/05/16 01:12:34;;;;;;;12.50;8.40;;;8.40;69.60;;;;;;5080801;28;46417;-67
2023/05/16 01:15:27;;;;;;;11.67;8.03;;;8.40;69.70;;;;;;5079825;28;46653;-67
2023/05/16 01:18:11;;;;;;;13.37;7.90;;;8.40;69.80;;;;;;5079671;27;46345;-66
2023/05/16 01:20:47;;;;;;;13.30;7.80;;;8.40;69.90;;;;;;5076874;28;46410;-66
2023/05/16 01:23:18;;;;;;;11.47;8.60;;;8.40;69.80;;;;;;5079485;28;46475;-66
2023/05/16 01:25:47;;;;;;;12.13;7.87;;;8.30;69.80;;;;;;5079327;28;46334;-66
2023/05/16 01:28:15;;;;;;;14.40;8.50;;;8.30;70.10;;;;;;5080057;28;46424;-65
2023/05/16 01:30:41;;;;;;;13.00;8.20;;;8.30;70.10;;;;;;5076231;28;46487;-66
2023/05/16 01:33:07;;;;;;;15.23;9.10;;;8.20;69.40;;;;;;5079059;28;46572;-66
2023/05/16 01:35:37;;;;;;;15.13;8.97;;;8.20;70.40;;;;;;5077705;28;46697;-66
2023/05/16 01:38:20;;;;;;;12.20;8.00;;;8.20;70.50;;;;;;5078217;28;46434;-66
2023/05/16 01:40:52;;;;;;;10.43;7.93;;;8.00;70.60;;;;;;5079273;28;46384;-67
2023/05/16 01:43:28;;;;;;;16.60;9.20;;;8.00;70.80;;;;;;5079786;28;46372;-66
2023/05/16 01:46:00;;;;;;;13.53;8.40;;;8.00;70.90;;;;;;5077401;28;46407;-67
2023/05/16 01:48:32;;;;;;;12.20;8.10;;;7.90;71.00;;;;;;5079868;28;46274;-64
2023/05/16 01:51:00;;;;;;;14.80;9.43;;;7.90;71.10;;;;;;5076735;28;46472;-66
2023/05/16 01:53:28;;;;;;;12.40;8.43;;;7.90;71.30;;;;;;5078656;28;45933;-66
2023/05/16 01:56:00;;;;;;;13.03;8.90;;;7.80;71.30;;;;;;5080025;28;46233;-66
2023/05/16 01:58:30;;;;;;;13.33;8.27;;;7.80;71.40;;;;;;5079602;28;45858;-66
2023/05/16 02:01:02;;;;;;;11.93;8.53;;;7.80;71.30;;;;;;5081916;28;46411;-66
2023/05/16 02:03:29;;;;;;;13.70;8.60;;;7.80;71.40;;;;;;5078778;28;46424;-66
2023/05/16 02:05:54;;;;;;;14.40;9.03;;;7.80;71.40;;;;;;5080943;28;47132;-66
2023/05/16 02:08:20;;;;;;;14.77;9.13;;;7.80;71.40;;;;;;5081125;28;46563;-66
2023/05/16 02:10:46;;;;;;;18.10;10.63;;;7.80;71.40;;;;;;5079064;28;46291;-66
2023/05/16 02:13:11;;;;;;;12.00;8.33;;;7.70;71.50;;;;;;5079793;28;46468;-65
2023/05/16 02:15:37;;;;;;;13.50;9.07;;;7.70;71.70;;;;;;5081171;28;46366;-66
2023/05/16 02:18:03;;;;;;;12.27;8.60;;;7.70;71.80;;;;;;5079075;28;46552;-66
2023/05/16 02:20:28;;;;;;;13.73;9.50;;;7.70;71.70;;;;;;5078646;28;45850;-65
2023/05/16 02:22:54;;;;;;;17.53;10.07;;;7.70;71.70;;;;;;5078914;28;46423;-65
2023/05/16 02:25:20;;;;;;;13.60;9.00;;;7.70;71.60;;;;;;5078513;28;46878;-66
2023/05/16 02:27:46;;;;;;;13.13;9.17;;;7.70;71.60;;;;;;5075049;28;46380;-66
2023/05/16 02:30:12;;;;;;;12.07;7.70;;;7.70;71.60;;;;;;5081205;28;46954;-66
2023/05/16 02:32:43;;;;;;;12.13;8.30;;;7.60;71.70;;;;;;5078482;28;46444;-66
2023/05/16 02:35:10;;;;;;;9.50;7.20;;;7.60;71.80;;;;;;5080418;28;46425;-67
2023/05/16 02:37:36;;;;;;;17.30;7.53;;;7.50;72.00;;;;;;5079731;28;46484;-66
2023/05/16 02:40:06;;;;;;;12.50;8.90;;;7.50;72.20;;;;;;5080896;28;45812;-66
2023/05/16 02:42:32;;;;;;;12.40;8.10;;;7.50;72.00;;;;;;5075729;28;46547;-65
2023/05/16 02:44:58;;;;;;;12.30;8.10;;;7.50;72.00;;;;;;5078285;28;46381;-65
2023/05/16 02:47:23;;;;;;;12.67;7.97;;;7.50;71.90;;;;;;5079954;28;46416;-65
2023/05/16 02:49:51;;;;;;;9.40;6.90;;;7.50;71.90;;;;;;5079397;28;45917;-66
2023/05/16 02:52:19;;;;;;;10.40;6.53;;;7.50;71.80;;;;;;5080884;28;46589;-67
2023/05/16 02:54:45;;;;;;;14.70;7.90;;;7.60;71.60;;;;;;5072994;28;46451;-66
2023/05/16 02:57:11;;;;;;;12.40;7.17;;;7.60;71.40;;;;;;5080123;28;46577;-65
2023/05/16 02:59:37;;;;;;;10.43;7.17;;;7.60;71.20;;;;;;5077273;28;46426;-65
2023/05/16 03:02:03;;;;;;;12.50;8.00;;;7.70;71.10;;;;;;5081287;28;46455;-66
2023/05/16 03:04:28;;;;;;;13.77;7.97;;;7.70;70.80;;;;;;5077527;28;45887;-67
2023/05/16 03:06:55;;;;;;;11.50;7.90;;;7.80;70.70;;;;;;5077512;28;46490;-65
2023/05/16 03:09:20;;;;;;;10.00;7.63;;;7.80;70.50;;;;;;5078751;28;46382;-65
2023/05/16 03:11:46;;;;;;;21.43;8.70;;;7.90;70.40;;;;;;5081071;28;46452;-66
2023/05/16 03:14:12;;;;;;;11.87;8.17;;;7.90;70.30;;;;;;5079616;28;46444;-66
2023/05/16 03:16:38;;;;;;;11.70;8.00;;;8.00;70.10;;;;;;5079709;28;46321;-66
2023/05/16 03:19:04;;;;;;;13.13;8.50;;;8.10;70.00;;;;;;5079518;28;46274;-65
2023/05/16 03:21:30;;;;;;;16.03;9.20;;;8.10;69.70;;;;;;5075107;28;46697;-66
2023/05/16 03:23:57;;;;;;;13.03;8.30;;;8.10;69.80;;;;;;5079701;28;46220;-65
2023/05/16 03:26:23;;;;;;;11.93;8.73;;;8.20;69.80;;;;;;5079794;28;46406;-66
2023/05/16 03:28:50;;;;;;;14.07;9.10;;;8.20;70.00;;;;;;5077608;28;46458;-66
2023/05/16 03:31:16;;;;;;;11.00;8.33;;;8.20;69.90;;;;;;5078067;28;46307;-67
2023/05/16 03:33:41;;;;;;;11.40;8.40;;;8.30;69.70;;;;;;5076151;28;46360;-65
2023/05/16 03:36:07;;;;;;;12.60;8.37;;;8.40;69.70;;;;;;5075872;28;46341;-66
2023/05/16 03:38:33;;;;;;;12.20;8.70;;;8.40;69.60;;;;;;5078655;28;46373;-66
2023/05/16 03:40:59;;;;;;;11.30;8.10;;;8.40;69.60;;;;;;5077562;28;46282;-65
2023/05/16 03:43:25;;;;;;;14.43;8.80;;;8.50;69.90;;;;;;5077404;28;48308;-66
2023/05/16 03:45:50;;;;;;;13.80;8.77;;;8.50;69.80;;;;;;5077524;28;46705;-65
2023/05/16 03:48:16;;;;;;;13.93;8.87;;;8.50;70.00;;;;;;5081450;28;45885;-65
2023/05/16 03:50:42;;;;;;;13.40;8.50;;;8.50;71.00;;;;;;5078571;28;46533;-66
2023/05/16 03:53:08;;;;;;;14.50;8.57;;;8.50;69.90;;;;;;5079286;28;46386;-66
2023/05/16 03:55:34;;;;;;;13.77;9.07;;;8.50;70.00;;;;;;5074494;28;46393;-66
2023/05/16 03:57:59;;;;;;;11.97;8.37;;;8.60;70.00;;;;;;5079768;28;46498;-66
2023/05/16 04:00:25;;;;;;;16.30;8.87;;;8.60;69.90;;;;;;5078923;28;46434;-66
2023/05/16 04:02:51;;;;;;;12.90;8.90;;;8.60;70.00;;;;;;5080355;28;46386;-66
2023/05/16 04:05:17;;;;;;;13.33;8.63;;;8.70;70.00;;;;;;5075790;28;46447;-66
2023/05/16 04:07:42;;;;;;;11.60;8.07;;;8.70;69.90;;;;;;5076888;28;46398;-66
2023/05/16 04:10:09;;;;;;;12.70;8.33;;;8.70;69.90;;;;;;5077419;28;46322;-66
2023/05/16 04:12:35;;;;;;;10.77;7.50;;;8.80;69.80;;;;;;5077741;28;46521;-66
2023/05/16 04:15:03;;;;;;;13.97;7.67;;;8.90;69.80;;;;;;5077431;28;46016;-66
2023/05/16 04:17:28;;;;;;;11.43;7.60;;;8.90;69.70;;;;;;5078384;28;46423;-66
2023/05/16 04:19:54;;;;;;;17.90;8.00;;;9.00;69.70;;;;;;5077483;28;46626;-65
2023/05/16 04:22:21;;;;;;;10.70;8.07;;;9.00;69.60;;;;;;5078365;28;46431;-67
2023/05/16 04:24:47;;;;;;;14.80;9.13;;;9.00;69.40;;;;;;5076709;28;46443;-66
2023/05/16 04:27:13;;;;;;;17.10;10.87;;;9.10;70.50;;;;;;5079260;28;46243;-66
2023/05/16 04:29:39;;;;;;;16.97;12.10;;;9.20;69.10;;;;;;5075244;28;46725;-66
2023/05/16 04:32:06;;;;;;;13.30;9.40;;;9.20;69.00;;;;;;5078042;28;46546;-66
2023/05/16 04:34:32;;;;;;;10.73;8.33;;;9.30;69.00;;;;;;5079274;28;46377;-66
2023/05/16 04:36:58;;;;;;;13.17;8.77;;;9.40;69.00;;;;;;5076351;28;46377;-66
2023/05/16 04:39:24;;;;;;;12.13;9.23;;;9.50;68.90;;;;;;5079366;28;46381;-66
2023/05/16 04:41:50;;;;;;;11.63;8.87;;;9.50;68.90;;;;;;5074265;28;46433;-64
2023/05/16 04:44:16;;;;;;;10.70;7.80;;;9.60;68.80;;;;;;5079754;28;46373;-66
2023/05/16 04:46:41;;;;;;;9.33;7.57;;;9.70;68.70;;;;;;5076343;28;46429;-66
2023/05/16 04:49:07;;;;;;;10.77;7.67;;;9.80;68.40;;;;;;5080195;28;46427;-67
2023/05/16 04:51:33;;;;;;;13.50;7.67;;;9.80;68.40;;;;;;5077502;28;47113;-66
2023/05/16 04:53:59;;;;;;;9.87;7.87;;;9.90;68.40;;;;;;5081289;28;45814;-67
2023/05/16 04:56:28;;;;;;;14.13;8.20;;;10.00;67.30;;;;;;5079290;28;46374;-66
2023/05/16 04:58:53;;;;;;;14.17;7.63;;;10.10;67.20;;;;;;5082388;28;46379;-66
2023/05/16 05:01:19;;;;;;;9.57;7.07;;;10.10;67.00;;;;;;5078137;28;46200;-67
2023/05/16 05:03:45;;;;;;;10.93;8.80;;;10.20;66.90;;;;;;5081018;28;46357;-66
2023/05/16 05:06:10;;;;;;;10.13;7.43;;;10.40;66.90;;;;;;5079612;28;46404;-66
2023/05/16 05:08:36;;;;;;;14.17;8.20;;;10.40;66.50;;;;;;5081307;28;46452;-67
2023/05/16 05:11:01;;;;;;;11.10;7.80;;;10.50;66.30;;;;;;5081023;28;46369;-67
2023/05/16 05:13:28;;;;;;;10.57;7.50;;;10.70;66.10;;;;;;5080645;28;45852;-66
2023/05/16 05:15:54;;;;;;;49.93;25.77;;;10.80;65.70;;;;;;5080793;28;46390;-66
2023/05/16 05:18:19;;;;;;;25.50;14.73;;;10.90;65.20;;;;;;5081762;28;46666;-66
2023/05/16 05:20:45;;;;;;;24.20;15.50;;;11.00;65.30;;;;;;5078710;28;46378;-66
2023/05/16 05:23:10;;;;;;;13.33;8.30;;;11.20;65.60;;;;;;5081024;28;46337;-66
2023/05/16 05:25:37;;;;;;;12.80;8.20;;;11.30;65.00;;;;;;5081310;28;46435;-66
2023/05/16 05:28:03;;;;;;;16.77;10.73;;;11.50;64.70;;;;;;5076128;28;45994;-66
2023/05/16 05:30:28;;;;;;;14.47;10.47;;;11.70;64.40;;;;;;5077973;28;47342;-66
2023/05/16 05:32:54;;;;;;;14.70;8.77;;;11.80;64.10;;;;;;5080398;28;46408;-66
2023/05/16 05:35:20;;;;;;;12.10;8.67;;;12.00;63.90;;;;;;5081234;28;46548;-67
2023/05/16 05:37:46;;;;;;;13.47;8.87;;;12.10;64.70;;;;;;5080171;28;46305;-66
2023/05/16 05:40:12;;;;;;;14.00;10.00;;;12.30;63.20;;;;;;5080744;28;47082;-67
2023/05/16 05:42:37;;;;;;;20.23;12.70;;;12.40;62.90;;;;;;5077491;28;46433;-66
2023/05/16 05:45:03;;;;;;;19.83;13.47;;;12.50;63.00;;;;;;5081046;28;46313;-65
2023/05/16 05:47:29;;;;;;;16.77;11.77;;;12.70;62.70;;;;;;5081573;28;46473;-66
2023/05/16 05:49:55;;;;;;;13.30;9.73;;;12.80;62.30;;;;;;5079597;28;45992;-66
2023/05/16 05:52:21;;;;;;;13.30;9.63;;;12.90;62.10;;;;;;5076092;28;46507;-65
2023/05/16 05:54:47;;;;;;;13.10;9.20;;;13.00;62.00;;;;;;5080326;28;46479;-65
2023/05/16 05:57:12;;;;;;;11.20;8.37;;;12.90;62.20;;;;;;5080174;28;46493;-66
2023/05/16 05:59:38;;;;;;;15.90;8.77;;;12.70;62.80;;;;;;5075149;28;46417;-65
2023/05/16 06:02:04;;;;;;;12.30;9.00;;;12.50;63.50;;;;;;5079584;28;46585;-65
2023/05/16 06:04:30;;;;;;;15.30;9.40;;;12.30;64.20;;;;;;5075009;27;46506;-65
2023/05/16 06:06:55;;;;;;;10.97;8.37;;;12.20;64.50;;;;;;5077928;28;46374;-65
2023/05/16 06:09:21;;;;;;;11.63;8.07;;;12.20;64.80;;;;;;5077941;28;46051;-66
2023/05/16 06:11:47;;;;;;;15.00;9.37;;;12.40;64.40;;;;;;5079806;28;46444;-67
2023/05/16 06:14:14;;;;;;;14.17;8.90;;;12.50;64.00;;;;;;5075583;28;46206;-66
2023/05/16 06:16:40;;;;;;;15.17;10.30;;;12.60;63.60;;;;;;5076272;28;46412;-67
2023/05/16 06:19:06;;;;;;;13.87;9.57;;;12.60;63.50;;;;;;5079617;28;46475;-65
2023/05/16 06:21:32;;;;;;;16.93;10.50;;;12.70;63.10;;;;;;5077772;28;46571;-66
2023/05/16 06:23:58;;;;;;;15.27;10.33;;;12.80;62.90;;;;;;5077521;28;46615;-67
2023/05/16 06:26:23;;;;;;;14.80;11.13;;;12.70;62.80;;;;;;5076136;27;46393;-67
2023/05/16 06:28:49;;;;;;;14.93;9.80;;;12.70;63.10;;;;;;5077386;28;47276;-67
2023/05/16 06:31:15;;;;;;;15.53;11.20;;;12.60;63.10;;;;;;5077089;28;46530;-66
2023/05/16 06:33:40;;;;;;;16.63;11.87;;;12.80;62.90;;;;;;5079245;28;46357;-67
2023/05/16 06:36:06;;;;;;;15.13;10.27;;;12.80;62.80;;;;;;5079090;28;46446;-68
2023/05/16 06:38:32;;;;;;;15.03;10.43;;;12.80;62.90;;;;;;5077997;28;46401;-66
2023/05/16 06:40:57;;;;;;;16.43;10.53;;;12.60;63.10;;;;;;5078526;28;46386;-67
2023/05/16 06:43:23;;;;;;;16.17;9.70;;;12.50;63.40;;;;;;5079896;28;46318;-68
2023/05/16 06:45:49;;;;;;;15.30;11.07;;;12.50;63.60;;;;;;5078162;28;46388;-67
2023/05/16 06:48:14;;;;;;;16.00;10.17;;;12.60;63.60;;;;;;5078193;28;46475;-65
2023/05/16 06:50:41;;;;;;;18.13;11.47;;;12.70;63.20;;;;;;5078271;28;46141;-66
2023/05/16 06:53:06;;;;;;;13.13;10.10;;;12.70;63.10;;;;;;5076923;28;46454;-69
2023/05/16 06:55:33;;;;;;;14.80;10.70;;;12.80;62.80;;;;;;5073367;28;46639;-69
2023/05/16 06:57:59;;;;;;;15.30;11.23;;;12.80;62.70;;;;;;5076660;28;46662;-68
2023/05/16 07:00:25;;;;;;;17.97;11.63;;;12.90;62.50;;;;;;5071931;27;46504;-67
2023/05/16 07:02:51;;;;;;;20.53;12.53;;;13.00;62.30;;;;;;5075791;28;46345;-67
2023/05/16 07:05:18;;;;;;;39.33;11.40;;;13.00;62.50;;;;;;5076466;27;46380;-67
2023/05/16 07:07:44;;;;;;;22.93;11.70;;;12.90;62.40;;;;;;5077997;28;46484;-68
2023/05/16 07:10:10;;;;;;;16.93;11.97;;;12.80;62.90;;;;;;5079581;28;46418;-66
2023/05/16 07:12:38;;;;;;;18.80;11.30;;;12.80;63.30;;;;;;5074594;28;46524;-66
2023/05/16 07:15:05;;;;;;;14.90;11.00;;;12.80;63.30;;;;;;5076175;28;46459;-65
2023/05/16 07:17:30;;;;;;;18.53;11.20;;;12.80;63.00;;;;;;5075179;28;47076;-67
2023/05/16 07:19:56;;;;;;;23.50;12.47;;;12.60;63.10;;;;;;5078646;28;45991;-66
2023/05/16 07:22:21;;;;;;;16.40;11.60;;;12.40;64.00;;;;;;5075752;28;46469;-66
2023/05/16 07:24:47;;;;;;;25.33;13.07;;;12.50;64.10;;;;;;5077512;28;46296;-66
2023/05/16 07:27:13;;;;;;;16.73;11.33;;;12.50;64.10;;;;;;5077553;28;46392;-68
2023/05/16 07:29:38;;;;;;;23.57;12.30;;;12.40;63.90;;;;;;5078683;28;46425;-66
2023/05/16 07:32:05;;;;;;;22.83;12.10;;;12.40;64.10;;;;;;5077288;28;46629;-67
2023/05/16 07:34:30;;;;;;;22.90;13.23;;;12.30;64.20;;;;;;5075500;28;47165;-67
2023/05/16 07:36:56;;;;;;;17.83;12.20;;;12.30;64.40;;;;;;5075798;28;47406;-68
2023/05/16 07:39:22;;;;;;;22.50;12.77;;;12.30;64.60;;;;;;5078443;28;46540;-67
2023/05/16 07:41:47;;;;;;;18.80;12.60;;;12.30;64.50;;;;;;5075988;28;46451;-67
2023/05/16 07:44:13;;;;;;;19.63;12.50;;;12.40;64.40;;;;;;5075224;28;46635;-67
2023/05/16 07:46:38;;;;;;;18.40;13.00;;;12.60;64.10;;;;;;5078359;28;47042;-67
2023/05/16 07:49:04;;;;;;;17.00;12.50;;;12.80;63.90;;;;;;5076870;28;45885;-68
2023/05/16 07:51:30;;;;;;;16.40;12.53;;;12.90;63.30;;;;;;5078635;28;46575;-70
2023/05/16 07:53:56;;;;;;;24.80;11.93;;;13.00;63.10;;;;;;5076483;28;46422;-66
2023/05/16 07:56:22;;;;;;;15.13;11.27;;;13.10;62.70;;;;;;5077638;28;46397;-67
2023/05/16 07:58:48;;;;;;;18.20;12.17;;;13.20;62.30;;;;;;5076133;28;46476;-67
2023/05/16 08:01:13;;;;;;;20.60;12.57;;;13.10;61.80;;;;;;5074950;28;46337;-68
2023/05/16 08:03:39;;;;;;;21.20;13.43;;;13.10;62.40;;;;;;5071337;28;46465;-70
2023/05/16 08:06:05;;;;;;;25.90;12.37;;;13.10;62.10;;;;;;5074962;28;46473;-68
2023/05/16 08:08:30;;;;;;;18.13;12.90;;;13.10;62.10;;;;;;5073441;28;46436;-69
2023/05/16 08:10:56;;;;;;;18.23;13.27;;;13.30;62.00;;;;;;5076605;28;46151;-71
2023/05/16 08:13:22;;;;;;;17.80;11.33;;;13.20;62.20;;;;;;5073535;28;46447;-68
2023/05/16 08:15:47;;;;;;;16.97;12.77;;;13.20;62.30;;;;;;5069209;28;46349;-68
2023/05/16 08:18:14;;;;;;;17.83;12.07;;;13.20;62.20;;;;;;5077151;28;46457;-67
2023/05/16 08:20:40;;;;;;;16.30;11.97;;;13.40;61.80;;;;;;5076336;28;46442;-67
2023/05/16 08:23:07;;;;;;;17.00;12.30;;;13.30;61.50;;;;;;5074506;28;46611;-69
2023/05/16 08:25:32;;;;;;;23.80;11.87;;;13.40;61.50;;;;;;5074970;27;47150;-68
2023/05/16 08:28:00;;;;;;;17.07;11.60;;;13.40;61.30;;;;;;5078423;28;46655;-68
2023/05/16 08:30:26;;;;;;;16.57;11.87;;;13.30;61.10;;;;;;5074601;28;46436;-67
2023/05/16 08:32:52;;;;;;;17.33;12.43;;;13.40;61.10;;;;;;5076359;28;46580;-66
2023/05/16 08:35:17;;;;;;;18.70;11.63;;;13.50;60.80;;;;;;5080522;28;46707;-66
2023/05/16 08:37:43;;;;;;;18.17;11.70;;;13.50;60.70;;;;;;5079892;28;46476;-66
2023/05/16 08:40:09;;;;;;;15.10;11.10;;;13.70;60.40;;;;;;5079620;28;46351;-65
2023/05/16 08:42:36;;;;;;;17.47;11.43;;;13.80;60.00;;;;;;5083077;28;46590;-66
2023/05/16 08:45:02;;;;;;;16.57;11.20;;;13.80;60.00;;;;;;5081186;28;46985;-69
2023/05/16 08:47:30;;;;;;;18.00;12.40;;;13.90;59.80;;;;;;5082312;28;46203;-68
2023/05/16 08:49:57;;;;;;;17.27;11.50;;;13.90;59.40;;;;;;5079743;28;46381;-68
2023/05/16 08:52:28;;;;;;;18.70;11.63;;;13.90;59.00;;;;;;5080400;28;46393;-67
2023/05/16 08:54:56;;;;;;;17.60;11.63;;;13.90;58.80;;;;;;5078253;28;47020;-67
2023/05/16 08:57:22;;;;;;;20.10;11.93;;;14.10;58.50;;;;;;5070643;27;46580;-68
2023/05/16 08:59:48;;;;;;;19.53;13.10;;;14.20;57.80;;;;;;5078372;28;46389;-67
2023/05/16 09:02:14;;;;;;;18.63;12.17;;;14.20;58.20;;;;;;5084401;28;46499;-66
2023/05/16 09:04:41;;;;;;;19.53;12.50;;;14.20;58.20;;;;;;5080421;28;46554;-66
2023/05/16 09:07:07;;;;;;;16.07;12.10;;;14.20;57.70;;;;;;5079654;28;46610;-66
2023/05/16 09:09:33;;;;;;;17.30;12.47;;;14.30;57.40;;;;;;5080329;28;46495;-65
2023/05/16 09:11:59;;;;;;;19.70;12.80;;;14.40;57.40;;;;;;5079828;28;45888;-66
2023/05/16 09:14:24;;;;;;;18.67;11.60;;;14.70;56.70;;;;;;5077444;28;46543;-66
2023/05/16 09:17:07;;;;;;;16.70;11.53;;;15.20;56.40;;;;;;5078541;28;46416;-66
2023/05/16 09:19:41;;;;;;;16.40;12.27;;;15.40;55.00;;;;;;5080393;28;46483;-67
2023/05/16 09:22:12;;;;;;;15.03;11.17;;;15.30;55.30;;;;;;5076130;28;46696;-66
2023/05/16 09:24:39;;;;;;;16.57;12.40;;;15.10;56.10;;;;;;5072694;28;46469;-66
2023/05/16 09:27:12;;;;;;;20.53;12.23;;;14.90;56.10;;;;;;5076185;28;46369;-67
2023/05/16 09:29:42;;;;;;;17.57;12.13;;;14.80;56.10;;;;;;5079932;28;46427;-67
2023/05/16 09:32:15;;;;;;;18.57;12.10;;;14.80;56.10;;;;;;5073335;28;46220;-66
2023/05/16 09:34:50;;;;;;;16.60;11.10;;;15.00;56.20;;;;;;5075043;27;46592;-66
2023/05/16 09:37:17;;;;;;;17.73;11.60;;;15.40;54.50;;;;;;5075607;28;46490;-65
2023/05/16 09:39:47;;;;;;;15.40;10.97;;;15.60;52.90;;;;;;5079603;28;46764;-67
2023/05/16 09:42:14;;;;;;;16.97;12.27;;;15.70;52.50;;;;;;5079819;28;46420;-66
2023/05/16 09:44:44;;;;;;;16.53;12.33;;;15.80;52.80;;;;;;5079024;28;46376;-65
2023/05/16 09:47:10;;;;;;;19.90;11.87;;;15.90;52.60;;;;;;5079792;28;46563;-68
2023/05/16 09:49:36;;;;;;;15.27;10.37;;;15.80;52.20;;;;;;5080134;28;46553;-67
2023/05/16 09:52:02;;;;;;;14.73;10.83;;;15.60;52.00;;;;;;5077770;28;46665;-66
2023/05/16 09:54:30;;;;;;;14.83;10.47;;;15.60;52.50;;;;;;5080638;28;46381;-68
2023/05/16 09:56:56;;;;;;;15.53;11.10;;;15.50;52.70;;;;;;5076667;28;45923;-68
2023/05/16 09:59:21;;;;;;;16.27;12.10;;;15.50;52.90;;;;;;5080913;28;46468;-66
2023/05/16 10:01:49;;;;;;;16.30;11.20;;;15.50;52.50;;;;;;5077041;28;45958;-66
2023/05/16 10:04:15;;;;;;;15.07;12.07;;;15.40;52.70;;;;;;5080298;28;46621;-66
2023/05/16 10:06:42;;;;;;;14.83;10.77;;;15.10;52.70;;;;;;5077955;28;46535;-66
2023/05/16 10:09:11;;;;;;;19.50;12.10;;;15.10;53.50;;;;;;5080721;28;46631;-66
2023/05/16 10:11:40;;;;;;;19.80;12.90;;;15.10;53.40;;;;;;5080221;28;46286;-66
2023/05/16 10:14:08;;;;;;;20.10;11.90;;;15.00;53.50;;;;;;5077315;28;46850;-66
2023/05/16 10:16:34;;;;;;;18.70;11.77;;;15.00;53.90;;;;;;5075854;28;46457;-66
2023/05/16 10:19:02;;;;;;;21.50;14.07;;;15.10;53.80;;;;;;5079123;28;45845;-66
2023/05/16 10:21:29;;;;;;;26.73;14.30;;;15.10;53.80;;;;;;5079213;28;46485;-66
2023/05/16 10:23:57;;;;;;;17.20;11.57;;;15.10;53.80;;;;;;5076175;28;46285;-68
2023/05/16 10:26:24;;;;;;;16.30;12.10;;;15.00;54.40;;;;;;5081803;28;46475;-67
2023/05/16 10:28:51;;;;;;;20.17;12.30;;;15.00;54.30;;;;;;5079016;28;46380;-64
2023/05/16 10:31:18;;;;;;;18.20;12.37;;;15.00;54.10;;;;;;5080357;28;46383;-69
2023/05/16 10:33:44;;;;;;;21.67;14.17;;;15.20;53.90;;;;;;5077940;28;46194;-70
2023/05/16 10:36:11;;;;;;;20.83;13.23;;;15.20;53.80;;;;;;5084022;28;45921;-70
2023/05/16 10:38:38;;;;;;;19.80;12.80;;;15.40;53.40;;;;;;5079143;28;46397;-69
2023/05/16 10:41:05;;;;;;;17.50;11.67;;;15.60;52.70;;;;;;5077509;28;46447;-68
2023/05/16 10:43:32;;;;;;;16.43;13.27;;;15.90;52.20;;;;;;5078072;28;46556;-68
2023/05/16 10:46:11;;;;;;;16.23;13.00;;;16.00;51.70;;;;;;5079500;28;46238;-67
2023/05/16 10:48:41;;;;;;;17.90;13.70;;;16.10;51.30;;;;;;5076641;27;45865;-68
2023/05/16 10:51:36;;;;;;;21.13;13.17;;;16.30;51.10;;;;;;5079423;28;46516;-69
2023/05/16 10:54:08;;;;;;;18.27;12.77;;;16.50;50.50;;;;;;5077636;28;46330;-68
2023/05/16 10:56:34;;;;;;;16.73;13.50;;;16.40;50.10;;;;;;5078310;28;46402;-67
2023/05/16 10:59:00;;;;;;;17.03;12.50;;;16.30;50.50;;;;;;5076609;28;45918;-68
2023/05/16 11:01:28;;;;;;;21.57;12.30;;;16.30;50.80;;;;;;5077835;28;46565;-67
2023/05/16 11:04:03;;;;;;;17.90;13.30;;;16.20;51.10;;;;;;5075694;28;46609;-67
2023/05/16 11:06:42;;;;;;;19.83;12.70;;;16.20;51.20;;;;;;5076687;28;46433;-68
2023/05/16 11:09:12;;;;;;;19.53;12.90;;;16.30;51.10;;;;;;5077522;28;45862;-67
2023/05/16 11:11:54;;;;;;;18.23;12.10;;;16.20;51.50;;;;;;5077209;28;46387;-69
2023/05/16 11:14:22;;;;;;;20.53;14.83;;;16.20;51.60;;;;;;5093720;27;48041;-67
2023/05/16 11:17:09;;;;;;;19.70;12.83;;;16.30;51.50;;;;;;5077470;28;46342;-66
2023/05/16 11:19:41;;;;;;;14.90;11.40;;;16.50;50.90;;;;;;5079864;28;45774;-67
2023/05/16 11:22:07;;;;;;;23.23;12.70;;;16.70;50.50;;;;;;5078047;28;45856;-65
2023/05/16 11:24:34;;;;;;;15.57;9.93;;;16.70;50.00;;;;;;5077843;28;46446;-65
2023/05/16 11:27:00;;;;;;;14.13;10.67;;;16.70;49.60;;;;;;5076938;28;46647;-67
2023/05/16 11:29:35;;;;;;;14.93;10.57;;;16.70;49.30;;;;;;5076749;27;46725;-67
2023/05/16 11:32:03;;;;;;;14.53;10.93;;;17.00;48.90;;;;;;5077494;28;46848;-69
2023/05/16 11:34:36;;;;;;;17.30;10.53;;;17.00;48.10;;;;;;5075376;28;46513;-68
2023/05/16 11:37:02;;;;;;;15.33;11.47;;;17.00;48.50;;;;;;5072458;28;46526;-68
2023/05/16 11:39:31;;;;;;;13.73;10.37;;;16.90;48.80;;;;;;5078081;28;45900;-67
2023/05/16 11:41:56;;;;;;;13.50;10.80;;;17.00;48.50;;;;;;5077682;28;46366;-69
2023/05/16 11:44:22;;;;;;;17.17;11.33;;;16.90;48.70;;;;;;5073859;28;46547;-68
2023/05/16 11:46:48;;;;;;;20.13;11.50;;;16.60;49.10;;;;;;5074355;28;46426;-68
2023/05/16 11:49:13;;;;;;;19.17;10.97;;;16.60;49.10;;;;;;5077982;28;45835;-68
2023/05/16 11:51:42;;;;;;;11.17;9.00;;;17.00;48.30;;;;;;5078114;28;45949;-69
2023/05/16 11:54:09;;;;;;;12.73;9.37;;;17.00;47.90;;;;;;5077920;28;46575;-68
2023/05/16 11:56:35;;;;;;;14.90;10.80;;;16.90;47.90;;;;;;5071212;28;46605;-69
2023/05/16 11:59:01;;;;;;;21.63;10.20;;;17.00;47.30;;;;;;5078322;28;46519;-68
2023/05/16 12:01:38;;;;;;;17.17;9.00;;;17.00;46.40;;;;;;5079400;27;46420;-68
2023/05/16 12:04:15;;;;;;;11.03;7.00;;;16.70;46.50;;;;;;5076819;28;46490;-67
2023/05/16 12:06:43;;;;;;;8.63;6.70;;;16.60;46.80;;;;;;5081426;28;46474;-67
2023/05/16 12:09:14;;;;;;;11.80;7.83;;;16.50;46.00;;;;;;5078298;28;46411;-66
2023/05/16 12:11:41;;;;;;;11.17;6.97;;;16.60;46.10;;;;;;5081141;28;46262;-66
2023/05/16 12:14:09;;;;;;;8.83;6.50;;;16.70;46.10;;;;;;5078755;28;46588;-67
2023/05/16 12:16:36;;;;;;;10.43;6.27;;;16.90;45.30;;;;;;5080939;28;45848;-68
2023/05/16 12:19:03;;;;;;;11.43;7.67;;;16.90;44.80;;;;;;5081635;28;46544;-69
2023/05/16 12:21:32;;;;;;;8.87;6.60;;;17.00;44.80;;;;;;5080952;28;46895;-66
2023/05/16 12:23:58;;;;;;;10.60;6.57;;;16.90;43.30;;;;;;5077168;28;47167;-68
2023/05/16 12:26:29;;;;;;;9.17;6.90;;;16.90;43.10;;;;;;5079388;28;46500;-67
2023/05/16 12:29:01;;;;;;;8.10;5.77;;;16.90;42.80;;;;;;5079125;28;46460;-67
2023/05/16 12:31:29;;;;;;;8.90;5.90;;;17.00;42.70;;;;;;5078519;28;46326;-64
2023/05/16 12:33:55;;;;;;;9.70;6.73;;;16.90;42.90;;;;;;5076764;28;47273;-67
2023/05/16 12:36:22;;;;;;;9.27;6.80;;;16.90;43.00;;;;;;5078595;28;45821;-67